sensor_id;sensor_type;location;lat;lon;timestamp;temperature;humidity
8226;DHT22;4154;48.810;9.012;2023-06-26T00:09:24;20.40;93.30
8226;DHT22;4154;48.810;9.012;2023-06-26T00:14:17;20.30;93.10
8226;DHT22;4154;48.810;9.012;2023-06-26T00:16:46;20.40;93.40
8226;DHT22;4154;48.810;9.012;2023-06-26T00:21:41;20.20;93.40
8226;DHT22;4154;48.810;9.012;2023-06-26T00:26:38;20.10;93.50
8226;DHT22;4154;48.810;9.012;2023-06-26T00:31:30;20.20;78.50
8226;DHT22;4154;48.810;9.012;2023-06-26T00:38:49;20.20;81.50
8226;DHT22;4154;48.810;9.012;2023-06-26T00:41:15;20.10;93.90
8226;DHT22;4154;48.810;9.012;2023-06-26T00:46:10;20.00;79.10
8226;DHT22;4154;48.810;9.012;2023-06-26T00:48:37;20.10;94.10
8226;DHT22;4154;48.810;9.012;2023-06-26T00:58:25;20.00;94.20
8226;DHT22;4154;48.810;9.012;2023-06-26T01:00:52;20.00;79.40
8226;DHT22;4154;48.810;9.012;2023-06-26T01:05:50;20.00;94.40
8226;DHT22;4154;48.810;9.012;2023-06-26T01:08:17;20.10;94.30
8226;DHT22;4154;48.810;9.012;2023-06-26T01:10:44;20.00;94.20
8226;DHT22;4154;48.810;9.012;2023-06-26T01:13:12;20.40;94.30
8226;DHT22;4154;48.810;9.012;2023-06-26T01:15:40;19.90;94.20
8226;DHT22;4154;48.810;9.012;2023-06-26T01:18:06;19.90;85.10
8226;DHT22;4154;48.810;9.012;2023-06-26T01:20:38;20.10;94.30
8226;DHT22;4154;48.810;9.012;2023-06-26T01:28:39;19.90;79.10
8226;DHT22;4154;48.810;9.012;2023-06-26T01:31:07;19.90;94.00
8226;DHT22;4154;48.810;9.012;2023-06-26T01:36:00;19.90;94.40
8226;DHT22;4154;48.810;9.012;2023-06-26T01:38:27;19.90;94.50
8226;DHT22;4154;48.810;9.012;2023-06-26T01:40:53;19.90;79.90
8226;DHT22;4154;48.810;9.012;2023-06-26T01:43:41;19.80;94.30
8226;DHT22;4154;48.810;9.012;2023-06-26T01:49:23;19.90;91.30
8226;DHT22;4154;48.810;9.012;2023-06-26T01:55:15;19.80;94.40
8226;DHT22;4154;48.810;9.012;2023-06-26T02:00:16;20.00;94.70
8226;DHT22;4154;48.810;9.012;2023-06-26T02:02:44;19.90;94.70
8226;DHT22;4154;48.810;9.012;2023-06-26T02:05:11;19.80;81.00
8226;DHT22;4154;48.810;9.012;2023-06-26T02:10:04;19.50;94.80
8226;DHT22;4154;48.810;9.012;2023-06-26T02:12:30;19.60;95.10
8226;DHT22;4154;48.810;9.012;2023-06-26T02:14:56;19.60;95.10
8226;DHT22;4154;48.810;9.012;2023-06-26T02:17:22;19.70;95.20
8226;DHT22;4154;48.810;9.012;2023-06-26T02:19:47;19.60;95.30
8226;DHT22;4154;48.810;9.012;2023-06-26T02:22:17;19.60;95.20
8226;DHT22;4154;48.810;9.012;2023-06-26T02:24:43;19.60;81.90
8226;DHT22;4154;48.810;9.012;2023-06-26T02:29:36;19.60;91.10
8226;DHT22;4154;48.810;9.012;2023-06-26T02:32:02;19.30;95.50
8226;DHT22;4154;48.810;9.012;2023-06-26T02:36:55;19.50;95.40
8226;DHT22;4154;48.810;9.012;2023-06-26T02:39:21;19.20;95.40
8226;DHT22;4154;48.810;9.012;2023-06-26T02:44:14;19.10;90.40
8226;DHT22;4154;48.810;9.012;2023-06-26T02:46:40;19.40;95.70
8226;DHT22;4154;48.810;9.012;2023-06-26T02:49:06;19.40;83.20
8226;DHT22;4154;48.810;9.012;2023-06-26T03:01:21;19.10;95.90
8226;DHT22;4154;48.810;9.012;2023-06-26T03:03:47;19.20;95.90
8226;DHT22;4154;48.810;9.012;2023-06-26T03:06:14;18.90;95.80
8226;DHT22;4154;48.810;9.012;2023-06-26T03:13:35;19.10;83.30
8226;DHT22;4154;48.810;9.012;2023-06-26T03:16:01;19.10;96.40
8226;DHT22;4154;48.810;9.012;2023-06-26T03:20:55;19.10;83.40
8226;DHT22;4154;48.810;9.012;2023-06-26T03:23:21;19.20;96.10
8226;DHT22;4154;48.810;9.012;2023-06-26T03:25:48;19.00;96.10
8226;DHT22;4154;48.810;9.012;2023-06-26T03:28:14;18.90;96.10
8226;DHT22;4154;48.810;9.012;2023-06-26T03:42:52;18.80;96.40
8226;DHT22;4154;48.810;9.012;2023-06-26T03:45:18;18.70;96.30
8226;DHT22;4154;48.810;9.012;2023-06-26T03:47:44;18.70;96.20
8226;DHT22;4154;48.810;9.012;2023-06-26T03:50:12;16.40;81.80
8226;DHT22;4154;48.810;9.012;2023-06-26T03:52:38;19.00;96.40
8226;DHT22;4154;48.810;9.012;2023-06-26T03:55:04;18.80;96.50
8226;DHT22;4154;48.810;9.012;2023-06-26T03:59:56;18.80;96.30
8226;DHT22;4154;48.810;9.012;2023-06-26T04:04:48;19.10;96.50
8226;DHT22;4154;48.810;9.012;2023-06-26T04:07:14;18.70;96.40
8226;DHT22;4154;48.810;9.012;2023-06-26T04:09:39;18.90;96.80
8226;DHT22;4154;48.810;9.012;2023-06-26T04:12:06;18.90;85.00
8226;DHT22;4154;48.810;9.012;2023-06-26T04:16:59;18.90;84.70
8226;DHT22;4154;48.810;9.012;2023-06-26T04:19:27;19.00;96.70
8226;DHT22;4154;48.810;9.012;2023-06-26T04:26:44;18.80;96.80
8226;DHT22;4154;48.810;9.012;2023-06-26T04:31:36;18.80;96.90
8226;DHT22;4154;48.810;9.012;2023-06-26T04:34:04;19.00;85.40
8226;DHT22;4154;48.810;9.012;2023-06-26T04:38:57;19.00;97.30
8226;DHT22;4154;48.810;9.012;2023-06-26T04:41:24;19.10;97.20
8226;DHT22;4154;48.810;9.012;2023-06-26T04:56:03;19.20;85.70
8226;DHT22;4154;48.810;9.012;2023-06-26T04:58:28;19.10;96.60
8226;DHT22;4154;48.810;9.012;2023-06-26T05:03:21;19.30;96.80
8226;DHT22;4154;48.810;9.012;2023-06-26T05:05:47;19.30;97.00
8226;DHT22;4154;48.810;9.012;2023-06-26T05:08:17;19.40;96.80
8226;DHT22;4154;48.810;9.012;2023-06-26T05:10:43;19.50;86.50
8226;DHT22;4154;48.810;9.012;2023-06-26T05:13:10;19.30;97.10
8226;DHT22;4154;48.810;9.012;2023-06-26T05:18:02;19.40;97.00
8226;DHT22;4154;48.810;9.012;2023-06-26T05:22:54;19.60;97.00
8226;DHT22;4154;48.810;9.012;2023-06-26T05:25:20;19.70;97.00
8226;DHT22;4154;48.810;9.012;2023-06-26T05:27:48;19.70;97.00
8226;DHT22;4154;48.810;9.012;2023-06-26T05:30:14;19.70;96.90
8226;DHT22;4154;48.810;9.012;2023-06-26T05:32:41;19.80;93.40
8226;DHT22;4154;48.810;9.012;2023-06-26T05:35:08;19.90;86.90
8226;DHT22;4154;48.810;9.012;2023-06-26T05:37:35;20.00;97.00
8226;DHT22;4154;48.810;9.012;2023-06-26T05:40:01;20.00;97.00
8226;DHT22;4154;48.810;9.012;2023-06-26T05:42:29;20.10;97.20
8226;DHT22;4154;48.810;9.012;2023-06-26T05:52:14;20.60;97.00
8226;DHT22;4154;48.810;9.012;2023-06-26T05:54:40;20.60;96.80
8226;DHT22;4154;48.810;9.012;2023-06-26T05:57:06;20.60;86.50
8226;DHT22;4154;48.810;9.012;2023-06-26T05:59:32;20.70;96.70
8226;DHT22;4154;48.810;9.012;2023-06-26T06:02:00;20.50;96.80
8226;DHT22;4154;48.810;9.012;2023-06-26T06:09:18;21.20;96.50
8226;DHT22;4154;48.810;9.012;2023-06-26T06:11:43;21.20;96.20
8226;DHT22;4154;48.810;9.012;2023-06-26T06:19:01;21.50;96.30
8226;DHT22;4154;48.810;9.012;2023-06-26T06:21:28;21.80;95.70
8226;DHT22;4154;48.810;9.012;2023-06-26T06:23:54;21.80;95.30
8226;DHT22;4154;48.810;9.012;2023-06-26T06:28:46;21.90;95.00
8226;DHT22;4154;48.810;9.012;2023-06-26T06:36:04;22.20;82.50
8226;DHT22;4154;48.810;9.012;2023-06-26T06:40:56;22.50;94.80
8226;DHT22;4154;48.810;9.012;2023-06-26T06:43:21;22.50;94.80
8226;DHT22;4154;48.810;9.012;2023-06-26T06:48:13;22.70;94.60
8226;DHT22;4154;48.810;9.012;2023-06-26T06:50:38;22.90;94.80
8226;DHT22;4154;48.810;9.012;2023-06-26T06:55:30;23.00;94.30
8226;DHT22;4154;48.810;9.012;2023-06-26T06:57:56;22.80;94.30
8226;DHT22;4154;48.810;9.012;2023-06-26T07:10:07;23.40;95.20
8226;DHT22;4154;48.810;9.012;2023-06-26T07:15:02;23.40;95.20
8226;DHT22;4154;48.810;9.012;2023-06-26T07:17:30;23.50;94.80
8226;DHT22;4154;48.810;9.012;2023-06-26T07:19:57;23.70;94.70
8226;DHT22;4154;48.810;9.012;2023-06-26T07:27:18;24.00;93.30
8226;DHT22;4154;48.810;9.012;2023-06-26T07:29:45;24.20;92.70
8226;DHT22;4154;48.810;9.012;2023-06-26T07:32:11;24.20;78.20
8226;DHT22;4154;48.810;9.012;2023-06-26T07:34:37;24.70;92.50
8226;DHT22;4154;48.810;9.012;2023-06-26T07:37:03;24.60;77.60
8226;DHT22;4154;48.810;9.012;2023-06-26T07:41:55;24.90;91.80
8226;DHT22;4154;48.810;9.012;2023-06-26T07:44:21;25.10;92.10
8226;DHT22;4154;48.810;9.012;2023-06-26T07:51:39;25.30;90.60
8226;DHT22;4154;48.810;9.012;2023-06-26T07:56:35;25.70;91.00
8226;DHT22;4154;48.810;9.012;2023-06-26T07:59:21;25.60;90.90
8226;DHT22;4154;48.810;9.012;2023-06-26T08:01:49;25.80;90.80
8226;DHT22;4154;48.810;9.012;2023-06-26T08:04:15;25.80;90.40
8226;DHT22;4154;48.810;9.012;2023-06-26T08:06:42;25.90;90.40
8226;DHT22;4154;48.810;9.012;2023-06-26T08:09:08;26.10;90.70
8226;DHT22;4154;48.810;9.012;2023-06-26T08:11:35;26.00;74.60
8226;DHT22;4154;48.810;9.012;2023-06-26T08:14:00;26.30;90.30
8226;DHT22;4154;48.810;9.012;2023-06-26T08:16:26;26.30;89.20
8226;DHT22;4154;48.810;9.012;2023-06-26T08:18:51;26.10;89.10
8226;DHT22;4154;48.810;9.012;2023-06-26T08:21:17;26.30;89.10
8226;DHT22;4154;48.810;9.012;2023-06-26T08:23:43;26.50;89.00
8226;DHT22;4154;48.810;9.012;2023-06-26T08:28:34;26.50;71.60
8226;DHT22;4154;48.810;9.012;2023-06-26T08:43:13;27.10;88.90
8226;DHT22;4154;48.810;9.012;2023-06-26T08:45:38;26.90;72.20
8226;DHT22;4154;48.810;9.012;2023-06-26T08:48:07;26.90;87.20
8226;DHT22;4154;48.810;9.012;2023-06-26T08:50:35;27.10;87.70
8226;DHT22;4154;48.810;9.012;2023-06-26T08:53:28;26.90;88.60
8226;DHT22;4154;48.810;9.012;2023-06-26T08:55:59;27.30;88.60
8226;DHT22;4154;48.810;9.012;2023-06-26T09:00:52;27.40;87.80
8226;DHT22;4154;48.810;9.012;2023-06-26T09:08:11;27.70;88.10
8226;DHT22;4154;48.810;9.012;2023-06-26T09:13:05;27.70;87.30
8226;DHT22;4154;48.810;9.012;2023-06-26T09:15:57;27.40;86.60
8226;DHT22;4154;48.810;9.012;2023-06-26T09:20:50;27.80;86.60
8226;DHT22;4154;48.810;9.012;2023-06-26T09:23:16;27.70;87.20
8226;DHT22;4154;48.810;9.012;2023-06-26T09:25:42;27.80;70.90
8226;DHT22;4154;48.810;9.012;2023-06-26T09:28:09;28.00;86.90
8226;DHT22;4154;48.810;9.012;2023-06-26T09:30:36;27.80;70.60
8226;DHT22;4154;48.810;9.012;2023-06-26T09:33:18;27.00;70.30
8226;DHT22;4154;48.810;9.012;2023-06-26T09:35:46;28.00;71.20
8226;DHT22;4154;48.810;9.012;2023-06-26T09:38:13;28.20;88.60
8226;DHT22;4154;48.810;9.012;2023-06-26T09:43:12;28.00;89.40
8226;DHT22;4154;48.810;9.012;2023-06-26T09:45:39;28.10;88.50
8226;DHT22;4154;48.810;9.012;2023-06-26T09:48:06;28.30;69.20
8226;DHT22;4154;48.810;9.012;2023-06-26T09:50:37;28.30;69.60
8226;DHT22;4154;48.810;9.012;2023-06-26T09:53:08;28.40;69.10
8226;DHT22;4154;48.810;9.012;2023-06-26T09:55:35;28.50;87.30
8226;DHT22;4154;48.810;9.012;2023-06-26T09:58:03;28.50;70.50
8226;DHT22;4154;48.810;9.012;2023-06-26T10:00:30;28.60;87.80
8226;DHT22;4154;48.810;9.012;2023-06-26T10:05:24;28.40;86.70
8226;DHT22;4154;48.810;9.012;2023-06-26T10:10:16;28.40;89.40
8226;DHT22;4154;48.810;9.012;2023-06-26T10:12:44;28.50;73.30
8226;DHT22;4154;48.810;9.012;2023-06-26T10:15:13;28.60;72.70
8226;DHT22;4154;48.810;9.012;2023-06-26T10:17:42;28.50;72.60
8226;DHT22;4154;48.810;9.012;2023-06-26T10:20:10;28.60;90.10
8226;DHT22;4154;48.810;9.012;2023-06-26T10:22:46;28.50;74.60
8226;DHT22;4154;48.810;9.012;2023-06-26T10:25:16;28.50;88.30
8226;DHT22;4154;48.810;9.012;2023-06-26T10:28:00;28.70;72.40
8226;DHT22;4154;48.810;9.012;2023-06-26T10:30:31;28.30;86.10
8226;DHT22;4154;48.810;9.012;2023-06-26T10:33:00;28.70;68.40
8226;DHT22;4154;48.810;9.012;2023-06-26T10:38:00;28.60;70.20
8226;DHT22;4154;48.810;9.012;2023-06-26T10:40:40;28.40;69.80
8226;DHT22;4154;48.810;9.012;2023-06-26T10:43:12;28.40;69.70
8226;DHT22;4154;48.810;9.012;2023-06-26T10:45:45;28.40;70.20
8226;DHT22;4154;48.810;9.012;2023-06-26T10:48:17;28.50;88.70
8226;DHT22;4154;48.810;9.012;2023-06-26T10:50:43;28.00;89.40
8226;DHT22;4154;48.810;9.012;2023-06-26T10:53:22;28.10;88.70
8226;DHT22;4154;48.810;9.012;2023-06-26T10:55:58;28.70;88.70
8226;DHT22;4154;48.810;9.012;2023-06-26T10:58:32;28.30;88.40
8226;DHT22;4154;48.810;9.012;2023-06-26T11:01:26;28.60;88.70
8226;DHT22;4154;48.810;9.012;2023-06-26T11:08:51;28.30;73.30
8226;DHT22;4154;48.810;9.012;2023-06-26T11:11:20;28.50;90.20
8226;DHT22;4154;48.810;9.012;2023-06-26T11:14:08;28.50;90.30
8226;DHT22;4154;48.810;9.012;2023-06-26T11:16:35;27.90;90.00
8226;DHT22;4154;48.810;9.012;2023-06-26T11:19:02;28.30;90.20
8226;DHT22;4154;48.810;9.012;2023-06-26T11:21:27;28.50;90.10
8226;DHT22;4154;48.810;9.012;2023-06-26T11:28:51;28.70;73.50
8226;DHT22;4154;48.810;9.012;2023-06-26T11:31:35;28.60;90.00
8226;DHT22;4154;48.810;9.012;2023-06-26T11:34:10;28.60;90.00
8226;DHT22;4154;48.810;9.012;2023-06-26T11:36:43;28.90;90.80
8226;DHT22;4154;48.810;9.012;2023-06-26T11:39:11;28.80;90.70
8226;DHT22;4154;48.810;9.012;2023-06-26T11:41:39;28.80;91.10
8226;DHT22;4154;48.810;9.012;2023-06-26T11:44:07;29.40;90.70
8226;DHT22;4154;48.810;9.012;2023-06-26T11:46:35;29.30;90.80
8226;DHT22;4154;48.810;9.012;2023-06-26T11:49:06;28.80;90.20
8226;DHT22;4154;48.810;9.012;2023-06-26T11:51:33;28.90;90.90
8226;DHT22;4154;48.810;9.012;2023-06-26T11:54:01;29.00;75.80
8226;DHT22;4154;48.810;9.012;2023-06-26T11:56:31;28.70;91.40
8226;DHT22;4154;48.810;9.012;2023-06-26T11:59:05;28.80;91.30
8226;DHT22;4154;48.810;9.012;2023-06-26T12:01:34;29.20;91.10
8226;DHT22;4154;48.810;9.012;2023-06-26T12:04:04;29.00;91.00
8226;DHT22;4154;48.810;9.012;2023-06-26T12:06:35;28.60;91.20
8226;DHT22;4154;48.810;9.012;2023-06-26T12:09:05;28.60;90.90
8226;DHT22;4154;48.810;9.012;2023-06-26T12:11:33;29.20;91.00
8226;DHT22;4154;48.810;9.012;2023-06-26T12:13:59;28.40;90.90
8226;DHT22;4154;48.810;9.012;2023-06-26T12:16:28;29.00;75.50
8226;DHT22;4154;48.810;9.012;2023-06-26T12:19:05;29.10;91.10
8226;DHT22;4154;48.810;9.012;2023-06-26T12:21:45;29.00;76.00
8226;DHT22;4154;48.810;9.012;2023-06-26T12:24:14;30.00;77.20
8226;DHT22;4154;48.810;9.012;2023-06-26T12:26:46;29.00;75.90
8226;DHT22;4154;48.810;9.012;2023-06-26T12:29:18;29.10;91.00
8226;DHT22;4154;48.810;9.012;2023-06-26T12:31:46;29.00;75.80
8226;DHT22;4154;48.810;9.012;2023-06-26T12:34:18;29.20;91.40
8226;DHT22;4154;48.810;9.012;2023-06-26T12:36:49;28.80;90.90
8226;DHT22;4154;48.810;9.012;2023-06-26T12:39:20;29.10;90.00
8226;DHT22;4154;48.810;9.012;2023-06-26T12:41:53;28.80;90.30
8226;DHT22;4154;48.810;9.012;2023-06-26T12:44:30;29.00;90.20
8226;DHT22;4154;48.810;9.012;2023-06-26T12:47:05;29.00;90.20
8226;DHT22;4154;48.810;9.012;2023-06-26T12:49:36;29.10;89.80
8226;DHT22;4154;48.810;9.012;2023-06-26T12:52:10;29.40;89.90
8226;DHT22;4154;48.810;9.012;2023-06-26T12:54:39;28.80;90.40
8226;DHT22;4154;48.810;9.012;2023-06-26T12:57:06;28.60;89.70
8226;DHT22;4154;48.810;9.012;2023-06-26T13:02:01;29.10;90.30
8226;DHT22;4154;48.810;9.012;2023-06-26T13:04:28;29.20;74.20
8226;DHT22;4154;48.810;9.012;2023-06-26T13:06:53;29.20;89.80
8226;DHT22;4154;48.810;9.012;2023-06-26T13:09:23;29.20;72.20
8226;DHT22;4154;48.810;9.012;2023-06-26T13:11:51;28.90;87.80
8226;DHT22;4154;48.810;9.012;2023-06-26T13:16:43;29.30;89.10
8226;DHT22;4154;48.810;9.012;2023-06-26T13:21:35;29.20;87.50
8226;DHT22;4154;48.810;9.012;2023-06-26T13:24:02;29.50;88.00
8226;DHT22;4154;48.810;9.012;2023-06-26T13:26:29;28.90;86.50
8226;DHT22;4154;48.810;9.012;2023-06-26T13:28:55;29.20;69.90
8226;DHT22;4154;48.810;9.012;2023-06-26T13:31:21;29.30;85.10
8226;DHT22;4154;48.810;9.012;2023-06-26T13:36:19;29.40;84.90
8226;DHT22;4154;48.810;9.012;2023-06-26T13:41:11;28.80;84.70
8226;DHT22;4154;48.810;9.012;2023-06-26T13:46:03;28.80;83.50
8226;DHT22;4154;48.810;9.012;2023-06-26T13:48:29;28.60;81.90
8226;DHT22;4154;48.810;9.012;2023-06-26T13:50:55;29.20;65.40
8226;DHT22;4154;48.810;9.012;2023-06-26T13:53:21;29.70;84.20
8226;DHT22;4154;48.810;9.012;2023-06-26T13:55:48;29.40;83.70
8226;DHT22;4154;48.810;9.012;2023-06-26T14:00:40;29.10;66.70
8226;DHT22;4154;48.810;9.012;2023-06-26T14:05:36;29.10;65.70
8226;DHT22;4154;48.810;9.012;2023-06-26T14:08:03;29.40;84.20
8226;DHT22;4154;48.810;9.012;2023-06-26T14:10:30;28.90;83.00
8226;DHT22;4154;48.810;9.012;2023-06-26T14:12:58;28.70;82.80
8226;DHT22;4154;48.810;9.012;2023-06-26T14:15:24;29.00;83.80
8226;DHT22;4154;48.810;9.012;2023-06-26T14:20:17;28.70;67.70
8226;DHT22;4154;48.810;9.012;2023-06-26T14:22:43;29.00;65.70
8226;DHT22;4154;48.810;9.012;2023-06-26T14:25:10;29.00;83.70
8226;DHT22;4154;48.810;9.012;2023-06-26T14:27:37;29.00;65.90
8226;DHT22;4154;48.810;9.012;2023-06-26T14:30:06;29.00;66.20
8226;DHT22;4154;48.810;9.012;2023-06-26T14:37:30;29.10;67.40
8226;DHT22;4154;48.810;9.012;2023-06-26T14:39:56;29.00;84.70
8226;DHT22;4154;48.810;9.012;2023-06-26T14:47:17;29.10;66.90
8226;DHT22;4154;48.810;9.012;2023-06-26T14:49:43;29.10;84.40
8226;DHT22;4154;48.810;9.012;2023-06-26T14:52:09;29.20;84.80
8226;DHT22;4154;48.810;9.012;2023-06-26T14:54:35;29.00;67.30
8226;DHT22;4154;48.810;9.012;2023-06-26T14:57:08;29.00;67.80
8226;DHT22;4154;48.810;9.012;2023-06-26T14:59:33;29.00;84.40
8226;DHT22;4154;48.810;9.012;2023-06-26T15:01:59;28.70;84.80
8226;DHT22;4154;48.810;9.012;2023-06-26T15:04:25;28.90;68.00
8226;DHT22;4154;48.810;9.012;2023-06-26T15:09:17;28.80;66.20
8226;DHT22;4154;48.810;9.012;2023-06-26T15:11:43;28.70;85.40
8226;DHT22;4154;48.810;9.012;2023-06-26T15:19:00;28.60;85.30
8226;DHT22;4154;48.810;9.012;2023-06-26T15:23:53;27.70;83.10
8226;DHT22;4154;48.810;9.012;2023-06-26T15:26:18;27.90;82.90
8226;DHT22;4154;48.810;9.012;2023-06-26T15:28:44;28.00;83.70
8226;DHT22;4154;48.810;9.012;2023-06-26T15:31:10;27.90;83.70
8226;DHT22;4154;48.810;9.012;2023-06-26T15:33:35;28.30;84.00
8226;DHT22;4154;48.810;9.012;2023-06-26T15:38:29;27.90;84.80
8226;DHT22;4154;48.810;9.012;2023-06-26T15:43:21;27.80;66.90
8226;DHT22;4154;48.810;9.012;2023-06-26T15:45:47;27.40;84.80
8226;DHT22;4154;48.810;9.012;2023-06-26T15:48:13;28.00;85.90
8226;DHT22;4154;48.810;9.012;2023-06-26T15:50:38;28.10;85.50
8226;DHT22;4154;48.810;9.012;2023-06-26T15:55:30;27.70;85.20
8226;DHT22;4154;48.810;9.012;2023-06-26T15:57:56;27.40;85.00
8226;DHT22;4154;48.810;9.012;2023-06-26T16:00:22;27.20;84.90
8226;DHT22;4154;48.810;9.012;2023-06-26T16:02:47;27.50;85.00
8226;DHT22;4154;48.810;9.012;2023-06-26T16:05:14;27.70;85.30
8226;DHT22;4154;48.810;9.012;2023-06-26T16:10:06;27.30;85.60
8226;DHT22;4154;48.810;9.012;2023-06-26T16:12:33;27.30;85.40
8226;DHT22;4154;48.810;9.012;2023-06-26T16:17:25;27.10;68.20
8226;DHT22;4154;48.810;9.012;2023-06-26T16:22:16;26.60;84.60
8226;DHT22;4154;48.810;9.012;2023-06-26T16:24:42;27.10;84.40
8226;DHT22;4154;48.810;9.012;2023-06-26T16:27:07;26.70;83.20
8226;DHT22;4154;48.810;9.012;2023-06-26T16:29:33;26.70;83.00
8226;DHT22;4154;48.810;9.012;2023-06-26T16:32:00;26.70;65.20
8226;DHT22;4154;48.810;9.012;2023-06-26T16:34:27;26.70;65.70
8226;DHT22;4154;48.810;9.012;2023-06-26T16:36:53;26.50;81.70
8226;DHT22;4154;48.810;9.012;2023-06-26T16:39:18;26.90;64.20
8226;DHT22;4154;48.810;9.012;2023-06-26T16:41:50;26.90;63.10
8226;DHT22;4154;48.810;9.012;2023-06-26T16:44:23;26.90;79.10
8226;DHT22;4154;48.810;9.012;2023-06-26T16:46:55;26.60;78.10
8226;DHT22;4154;48.810;9.012;2023-06-26T16:49:25;26.70;78.70
8226;DHT22;4154;48.810;9.012;2023-06-26T16:51:51;26.50;77.80
8226;DHT22;4154;48.810;9.012;2023-06-26T16:54:24;26.60;77.70
8226;DHT22;4154;48.810;9.012;2023-06-26T16:56:52;26.20;77.50
8226;DHT22;4154;48.810;9.012;2023-06-26T16:59:19;26.60;59.90
8226;DHT22;4154;48.810;9.012;2023-06-26T17:04:11;26.60;75.60
8226;DHT22;4154;48.810;9.012;2023-06-26T17:06:37;26.10;75.00
8226;DHT22;4154;48.810;9.012;2023-06-26T17:11:29;26.20;75.60
8226;DHT22;4154;48.810;9.012;2023-06-26T17:16:21;26.10;75.00
8226;DHT22;4154;48.810;9.012;2023-06-26T17:23:39;25.80;76.00
8226;DHT22;4154;48.810;9.012;2023-06-26T17:26:04;25.90;74.80
8226;DHT22;4154;48.810;9.012;2023-06-26T17:28:31;25.90;73.50
8226;DHT22;4154;48.810;9.012;2023-06-26T17:33:23;25.80;74.50
8226;DHT22;4154;48.810;9.012;2023-06-26T17:35:48;25.80;75.40
8226;DHT22;4154;48.810;9.012;2023-06-26T17:38:14;25.50;75.10
8226;DHT22;4154;48.810;9.012;2023-06-26T17:45:32;25.60;75.60
8226;DHT22;4154;48.810;9.012;2023-06-26T17:52:52;25.30;74.90
8226;DHT22;4154;48.810;9.012;2023-06-26T17:55:17;25.20;74.80
8226;DHT22;4154;48.810;9.012;2023-06-26T17:57:43;25.10;74.50
8226;DHT22;4154;48.810;9.012;2023-06-26T18:00:09;25.00;75.80
8226;DHT22;4154;48.810;9.012;2023-06-26T18:02:36;25.20;74.90
8226;DHT22;4154;48.810;9.012;2023-06-26T18:05:06;25.20;74.60
8226;DHT22;4154;48.810;9.012;2023-06-26T18:09:59;24.80;74.40
8226;DHT22;4154;48.810;9.012;2023-06-26T18:14:52;24.80;75.10
8226;DHT22;4154;48.810;9.012;2023-06-26T18:17:17;24.40;74.70
8226;DHT22;4154;48.810;9.012;2023-06-26T18:19:43;24.80;75.10
8226;DHT22;4154;48.810;9.012;2023-06-26T18:22:09;24.70;74.90
8226;DHT22;4154;48.810;9.012;2023-06-26T18:24:34;24.80;75.10
8226;DHT22;4154;48.810;9.012;2023-06-26T18:27:00;24.70;75.60
8226;DHT22;4154;48.810;9.012;2023-06-26T18:29:26;24.60;75.70
8226;DHT22;4154;48.810;9.012;2023-06-26T18:31:51;24.60;75.80
8226;DHT22;4154;48.810;9.012;2023-06-26T18:34:17;24.60;58.20
8226;DHT22;4154;48.810;9.012;2023-06-26T18:36:42;24.40;76.20
8226;DHT22;4154;48.810;9.012;2023-06-26T18:39:08;24.40;76.80
8226;DHT22;4154;48.810;9.012;2023-06-26T18:41:34;24.40;76.50
8226;DHT22;4154;48.810;9.012;2023-06-26T18:44:00;24.40;77.40
8226;DHT22;4154;48.810;9.012;2023-06-26T18:46:26;24.00;76.70
8226;DHT22;4154;48.810;9.012;2023-06-26T18:49:03;24.10;77.30
8226;DHT22;4154;48.810;9.012;2023-06-26T18:51:30;24.20;59.10
8226;DHT22;4154;48.810;9.012;2023-06-26T18:53:57;24.10;77.60
8226;DHT22;4154;48.810;9.012;2023-06-26T18:56:27;24.10;59.60
8226;DHT22;4154;48.810;9.012;2023-06-26T19:01:23;24.10;79.10
8226;DHT22;4154;48.810;9.012;2023-06-26T19:03:49;24.00;79.40
8226;DHT22;4154;48.810;9.012;2023-06-26T19:13:34;23.70;78.50
8226;DHT22;4154;48.810;9.012;2023-06-26T19:16:00;23.80;78.60
8226;DHT22;4154;48.810;9.012;2023-06-26T19:18:26;23.70;78.90
8226;DHT22;4154;48.810;9.012;2023-06-26T19:23:18;23.70;60.50
8226;DHT22;4154;48.810;9.012;2023-06-26T19:25:45;23.60;60.70
8226;DHT22;4154;48.810;9.012;2023-06-26T19:33:04;23.40;78.30
8226;DHT22;4154;48.810;9.012;2023-06-26T19:35:30;23.30;78.40
8226;DHT22;4154;48.810;9.012;2023-06-26T19:37:56;23.20;78.20
8226;DHT22;4154;48.810;9.012;2023-06-26T19:40:22;23.30;60.10
8226;DHT22;4154;48.810;9.012;2023-06-26T19:42:48;23.20;78.50
8226;DHT22;4154;48.810;9.012;2023-06-26T19:45:13;23.30;79.20
8226;DHT22;4154;48.810;9.012;2023-06-26T19:50:07;23.30;79.40
8226;DHT22;4154;48.810;9.012;2023-06-26T19:52:37;23.00;79.30
8226;DHT22;4154;48.810;9.012;2023-06-26T19:55:03;22.90;79.10
8226;DHT22;4154;48.810;9.012;2023-06-26T19:57:29;22.90;79.50
8226;DHT22;4154;48.810;9.012;2023-06-26T20:04:47;22.60;80.20
8226;DHT22;4154;48.810;9.012;2023-06-26T20:07:13;22.60;81.00
8226;DHT22;4154;48.810;9.012;2023-06-26T20:12:05;22.60;81.10
8226;DHT22;4154;48.810;9.012;2023-06-26T20:14:32;22.50;81.00
8226;DHT22;4154;48.810;9.012;2023-06-26T20:16:57;22.30;81.20
8226;DHT22;4154;48.810;9.012;2023-06-26T20:19:24;22.40;65.00
8226;DHT22;4154;48.810;9.012;2023-06-26T20:24:16;22.30;62.70
8226;DHT22;4154;48.810;9.012;2023-06-26T20:26:42;22.10;82.10
8226;DHT22;4154;48.810;9.012;2023-06-26T20:29:09;22.30;83.00
8226;DHT22;4154;48.810;9.012;2023-06-26T20:34:02;22.10;84.20
8226;DHT22;4154;48.810;9.012;2023-06-26T20:36:28;22.10;84.40
8226;DHT22;4154;48.810;9.012;2023-06-26T20:38:53;22.00;64.70
8226;DHT22;4154;48.810;9.012;2023-06-26T20:43:45;21.90;85.70
8226;DHT22;4154;48.810;9.012;2023-06-26T20:46:11;21.70;85.20
8226;DHT22;4154;48.810;9.012;2023-06-26T20:48:40;21.80;85.40
8226;DHT22;4154;48.810;9.012;2023-06-26T20:51:06;21.70;85.90
8226;DHT22;4154;48.810;9.012;2023-06-26T20:56:00;21.70;85.90
8226;DHT22;4154;48.810;9.012;2023-06-26T21:00:52;21.70;65.50
8226;DHT22;4154;48.810;9.012;2023-06-26T21:03:18;21.80;86.70
8226;DHT22;4154;48.810;9.012;2023-06-26T21:05:43;21.20;85.30
8226;DHT22;4154;48.810;9.012;2023-06-26T21:10:35;21.30;85.60
8226;DHT22;4154;48.810;9.012;2023-06-26T21:15:27;21.50;86.00
8226;DHT22;4154;48.810;9.012;2023-06-26T21:17:53;21.40;66.80
8226;DHT22;4154;48.810;9.012;2023-06-26T21:27:37;21.30;86.60
8226;DHT22;4154;48.810;9.012;2023-06-26T21:30:03;21.40;86.80
8226;DHT22;4154;48.810;9.012;2023-06-26T21:32:32;21.20;86.50
8226;DHT22;4154;48.810;9.012;2023-06-26T21:37:26;21.20;87.10
8226;DHT22;4154;48.810;9.012;2023-06-26T21:39:51;21.20;87.00
8226;DHT22;4154;48.810;9.012;2023-06-26T21:42:17;21.10;86.90
8226;DHT22;4154;48.810;9.012;2023-06-26T21:47:09;21.20;87.20
8226;DHT22;4154;48.810;9.012;2023-06-26T21:49:34;21.30;87.30
8226;DHT22;4154;48.810;9.012;2023-06-26T21:54:26;21.20;87.10
8226;DHT22;4154;48.810;9.012;2023-06-26T21:56:52;21.00;87.60
8226;DHT22;4154;48.810;9.012;2023-06-26T22:04:09;21.10;87.70
8226;DHT22;4154;48.810;9.012;2023-06-26T22:21:13;21.10;88.40
8226;DHT22;4154;48.810;9.012;2023-06-26T22:26:05;21.00;88.20
8226;DHT22;4154;48.810;9.012;2023-06-26T22:30:56;21.00;68.70
8226;DHT22;4154;48.810;9.012;2023-06-26T22:35:48;21.00;88.80
8226;DHT22;4154;48.810;9.012;2023-06-26T22:38:14;21.00;88.80
8226;DHT22;4154;48.810;9.012;2023-06-26T22:43:05;20.90;88.50
8226;DHT22;4154;48.810;9.012;2023-06-26T22:45:32;20.80;88.50
8226;DHT22;4154;48.810;9.012;2023-06-26T22:47:58;20.90;69.60
8226;DHT22;4154;48.810;9.012;2023-06-26T22:50:24;20.80;89.50